createdAt,value
2023-04-26T00:00:48.577Z,37.56
2023-04-26T00:01:47.544Z,33.38
2023-04-26T00:02:47.721Z,35.17
2023-04-26T00:03:47.875Z,40.07
2023-04-26T00:04:47.882Z,39.75
2023-04-26T00:05:47.882Z,39.64
2023-04-26T00:06:47.852Z,37.17
2023-04-26T00:07:48.858Z,39.17
2023-04-26T00:08:47.848Z,40.73
2023-04-26T00:09:47.958Z,40.03
2023-04-26T00:10:48.061Z,39.32
2023-04-26T00:11:49.111Z,35.07
2023-04-26T00:12:48.149Z,35.98
2023-04-26T00:13:48.290Z,36.32
2023-04-26T00:14:48.413Z,39.10
2023-04-26T00:15:49.223Z,45.80
2023-04-26T00:16:49.410Z,32.79
2023-04-26T00:17:48.766Z,35.96
2023-04-26T00:18:48.503Z,39.79
2023-04-26T00:19:48.598Z,38.84
2023-04-26T00:20:48.656Z,35.00
2023-04-26T00:21:48.688Z,37.25
2023-04-26T00:22:48.719Z,38.77
2023-04-26T00:23:48.763Z,37.10
2023-04-26T00:24:48.859Z,39.44
2023-04-26T00:25:48.775Z,38.25
2023-04-26T00:26:48.833Z,36.96
2023-04-26T00:27:48.926Z,37.23
2023-04-26T00:28:49.143Z,34.17
2023-04-26T00:29:49.081Z,39.93
2023-04-26T00:30:49.097Z,38.21
2023-04-26T00:31:50.246Z,39.95
2023-04-26T00:32:49.265Z,34.28
2023-04-26T00:33:49.349Z,33.79
2023-04-26T00:34:49.302Z,37.61
2023-04-26T00:35:49.478Z,38.09
2023-04-26T00:36:49.475Z,36.40
2023-04-26T00:37:49.560Z,31.88
2023-04-26T00:38:49.874Z,40.93
2023-04-26T00:39:49.687Z,37.37
2023-04-26T00:40:49.833Z,41.34
2023-04-26T00:41:49.799Z,37.51
2023-04-26T00:42:49.886Z,40.12
2023-04-26T00:43:49.946Z,36.74
2023-04-26T00:44:49.893Z,33.74
2023-04-26T00:45:50.183Z,38.33
2023-04-26T00:46:50.054Z,35.33
2023-04-26T00:47:50.190Z,36.63
2023-04-26T00:48:50.532Z,35.14
2023-04-26T00:49:50.363Z,35.15
2023-04-26T00:50:50.523Z,35.47
2023-04-26T00:51:50.337Z,38.56
2023-04-26T00:52:50.354Z,36.39
2023-04-26T00:53:50.436Z,37.08
2023-04-26T00:54:50.841Z,37.94
2023-04-26T00:55:51.601Z,35.82
2023-04-26T00:56:50.661Z,41.26
2023-04-26T00:57:50.645Z,39.82
2023-04-26T00:58:50.918Z,39.60
2023-04-26T00:59:50.811Z,38.21
2023-04-26T01:32:26.029Z,25.00
2023-04-26T01:33:25.911Z,25.00
2023-04-26T01:34:25.777Z,25.00
2023-04-26T01:35:25.718Z,25.00
2023-04-26T01:36:25.682Z,25.00
2023-04-26T01:37:25.831Z,25.00
2023-04-26T01:38:25.790Z,24.31
2023-04-26T01:39:26.120Z,25.78
2023-04-26T01:40:25.948Z,25.00
2023-04-26T01:41:25.864Z,26.67
2023-04-26T01:42:26.234Z,25.00
2023-04-26T01:43:26.021Z,27.11
2023-04-26T01:44:26.093Z,27.35
2023-04-26T01:45:26.466Z,30.24
2023-04-26T01:46:26.244Z,30.22
2023-04-26T01:47:26.254Z,25.00
2023-04-26T01:48:26.296Z,27.76
2023-04-26T01:49:26.381Z,25.07
2023-04-26T01:50:26.977Z,28.13
2023-04-26T01:51:26.426Z,28.79
2023-04-26T01:52:26.552Z,32.59
2023-04-26T01:53:26.591Z,33.03
2023-04-26T01:54:26.636Z,33.11
2023-04-26T01:55:26.588Z,31.39
2023-04-26T01:56:27.556Z,28.59
2023-04-26T01:57:27.489Z,30.37
2023-04-26T01:58:26.617Z,28.43
2023-04-26T01:59:26.637Z,29.17
2023-04-26T02:00:26.504Z,27.99
2023-04-26T02:01:26.597Z,28.98
2023-04-26T02:02:26.752Z,30.96
2023-04-26T02:03:26.701Z,30.98
2023-04-26T02:04:26.679Z,29.23
2023-04-26T02:05:26.874Z,29.82
2023-04-26T02:06:26.725Z,30.04
2023-04-26T02:07:26.774Z,33.58
2023-04-26T02:08:26.898Z,36.41
2023-04-26T02:09:26.813Z,33.08
2023-04-26T02:10:27.993Z,31.48
2023-04-26T02:11:27.175Z,35.72
2023-04-26T02:12:26.972Z,29.50
2023-04-26T02:13:28.013Z,34.99
2023-04-26T02:14:28.149Z,33.67
2023-04-26T02:15:27.109Z,33.96
2023-04-26T02:16:27.444Z,33.46
2023-04-26T02:17:27.442Z,33.71
2023-04-26T02:18:27.338Z,35.19
2023-04-26T02:19:27.422Z,36.48
2023-04-26T02:20:27.551Z,35.93
2023-04-26T02:21:27.498Z,35.62
2023-04-26T02:22:27.558Z,37.74
2023-04-26T02:23:27.725Z,36.63
2023-04-26T02:24:27.806Z,37.72
2023-04-26T02:25:27.706Z,38.72
2023-04-26T02:26:27.925Z,38.61
2023-04-26T02:27:27.830Z,36.22
2023-04-26T02:28:27.890Z,37.55
2023-04-26T02:29:43.074Z,39.02
2023-04-26T02:30:28.957Z,39.12
2023-04-26T02:31:27.930Z,38.73
2023-04-26T02:32:27.863Z,35.09
2023-04-26T02:33:27.911Z,39.76
2023-04-26T02:34:28.267Z,41.50
2023-04-26T02:35:27.887Z,39.88
2023-04-26T02:36:27.839Z,38.01
2023-04-26T02:37:28.879Z,39.90
2023-04-26T02:38:27.885Z,38.70
2023-04-26T02:39:29.029Z,38.48
2023-04-26T02:40:27.964Z,41.52
2023-04-26T02:41:28.073Z,40.61
2023-04-26T02:42:28.086Z,41.43
2023-04-26T02:43:28.098Z,40.06
2023-04-26T02:44:29.266Z,39.47
2023-04-26T02:45:28.325Z,40.12
2023-04-26T02:46:28.342Z,40.89
2023-04-26T02:47:28.446Z,41.01
2023-04-26T02:48:28.380Z,42.69
2023-04-26T02:49:28.416Z,42.75
2023-04-26T02:50:28.549Z,40.91
2023-04-26T02:51:28.518Z,38.17
2023-04-26T02:52:28.585Z,40.17
2023-04-26T02:53:28.798Z,42.14
2023-04-26T02:54:28.737Z,41.52
2023-04-26T02:55:28.895Z,43.02
2023-04-26T02:56:28.737Z,42.62
2023-04-26T02:57:28.822Z,42.02
2023-04-26T02:58:30.158Z,43.10
2023-04-26T02:59:28.842Z,43.14
2023-04-26T03:00:28.929Z,43.88
2023-04-26T03:01:32.081Z,43.25
2023-04-26T03:02:29.135Z,43.13
2023-04-26T03:03:29.125Z,42.48
2023-04-26T03:04:29.053Z,42.67
2023-04-26T03:05:29.098Z,42.15
2023-04-26T03:06:29.966Z,43.84
2023-04-26T03:07:28.944Z,45.07
2023-04-26T03:08:28.872Z,43.22
2023-04-26T03:09:29.935Z,44.62
2023-04-26T03:10:29.054Z,44.52
2023-04-26T03:11:28.933Z,41.82
2023-04-26T03:12:28.959Z,44.91
2023-04-26T03:13:28.860Z,44.95
2023-04-26T03:14:28.846Z,44.12
2023-04-26T03:15:28.983Z,46.18
2023-04-26T03:16:29.012Z,43.99
2023-04-26T03:17:29.144Z,42.99
2023-04-26T03:18:28.862Z,42.99
2023-04-26T03:19:28.874Z,42.63
2023-04-26T03:20:28.902Z,46.12
2023-04-26T03:21:28.866Z,45.12
2023-04-26T03:22:28.845Z,44.18
2023-04-26T03:23:28.867Z,44.31
2023-04-26T03:24:28.772Z,45.01
2023-04-26T03:25:28.993Z,45.03
2023-04-26T03:26:28.943Z,44.80
2023-04-26T03:27:28.898Z,43.33
2023-04-26T03:28:28.800Z,45.04
2023-04-26T03:29:28.864Z,46.09
2023-04-26T03:30:28.741Z,46.58
2023-04-26T03:31:28.767Z,45.91
2023-04-26T03:32:29.022Z,48.01
2023-04-26T03:33:29.047Z,46.45
2023-04-26T03:34:28.933Z,45.55
2023-04-26T03:35:29.059Z,44.08
2023-04-26T03:36:29.988Z,45.54
2023-04-26T03:37:29.246Z,47.68
2023-04-26T03:38:29.124Z,45.26
2023-04-26T03:39:29.328Z,45.43
2023-04-26T03:40:29.129Z,46.37
2023-04-26T03:41:29.251Z,44.41
2023-04-26T03:42:29.227Z,44.13
2023-04-26T03:43:29.389Z,43.98
2023-04-26T03:44:31.053Z,44.57
2023-04-26T03:45:29.389Z,44.28
2023-04-26T03:46:29.608Z,47.94
2023-04-26T03:47:29.600Z,44.98
2023-04-26T03:48:29.560Z,46.39
2023-04-26T03:49:29.549Z,48.17
2023-04-26T03:50:29.767Z,42.65
2023-04-26T03:51:29.738Z,45.61
2023-04-26T03:52:29.731Z,46.64
2023-04-26T03:53:29.810Z,45.02
2023-04-26T03:54:29.756Z,43.46
2023-04-26T03:55:29.863Z,45.30
2023-04-26T03:56:30.012Z,47.65
2023-04-26T03:57:29.944Z,45.82
2023-04-26T03:58:29.957Z,45.05
2023-04-26T03:59:31.020Z,45.49
2023-04-26T04:00:30.077Z,45.57
2023-04-26T04:01:32.925Z,46.78
2023-04-26T04:02:30.302Z,46.44
2023-04-26T04:03:30.504Z,46.18
2023-04-26T04:04:30.328Z,45.28
2023-04-26T04:05:30.120Z,45.85
2023-04-26T04:06:30.092Z,47.47
2023-04-26T04:07:30.052Z,44.19
2023-04-26T04:08:30.071Z,46.88
2023-04-26T04:09:30.091Z,45.52
2023-04-26T04:10:30.144Z,45.58
2023-04-26T04:11:31.058Z,49.26
2023-04-26T04:12:30.040Z,44.90
2023-04-26T04:13:29.983Z,50.27
2023-04-26T04:14:30.084Z,45.75
2023-04-26T04:15:30.079Z,46.63
2023-04-26T04:16:30.047Z,46.75
2023-04-26T04:17:30.012Z,46.62
2023-04-26T04:18:30.020Z,46.48
2023-04-26T04:19:30.066Z,45.45
2023-04-26T04:20:29.994Z,45.63
2023-04-26T04:21:30.006Z,44.89
2023-04-26T04:22:30.086Z,45.38
2023-04-26T04:23:29.914Z,44.93
2023-04-26T04:24:29.878Z,45.90
2023-04-26T04:25:30.024Z,43.20
2023-04-26T04:26:30.054Z,44.90
2023-04-26T04:27:29.980Z,43.36
2023-04-26T04:28:29.873Z,42.66
2023-04-26T04:29:29.940Z,45.79
2023-04-26T04:30:30.961Z,44.35
2023-04-26T04:31:29.939Z,43.51
2023-04-26T04:32:30.179Z,44.55
2023-04-26T04:33:30.036Z,45.10
2023-04-26T04:34:30.204Z,41.26
2023-04-26T04:35:30.361Z,43.50
2023-04-26T04:36:30.314Z,44.07
2023-04-26T04:37:31.344Z,42.92
2023-04-26T04:38:30.517Z,41.76
2023-04-26T04:39:30.468Z,43.70
2023-04-26T04:40:30.596Z,42.06
2023-04-26T04:41:30.671Z,41.70
2023-04-26T04:42:30.792Z,41.05
2023-04-26T04:43:30.602Z,41.81
2023-04-26T04:44:30.660Z,41.35
2023-04-26T04:45:30.795Z,40.46
2023-04-26T04:46:30.956Z,42.78
2023-04-26T04:47:30.885Z,43.38
2023-04-26T04:48:30.926Z,43.16
2023-04-26T04:49:30.901Z,42.84
2023-04-26T04:50:32.150Z,41.95
2023-04-26T04:51:31.097Z,44.71
2023-04-26T04:52:31.121Z,43.00
2023-04-26T04:53:31.167Z,43.85
2023-04-26T04:54:31.179Z,39.76
2023-04-26T04:55:31.313Z,45.37
2023-04-26T04:56:31.437Z,48.06
2023-04-26T04:57:31.401Z,43.44
2023-04-26T04:58:31.898Z,43.14
2023-04-26T04:59:31.517Z,44.79
2023-04-26T05:00:31.952Z,45.76
2023-04-26T05:01:31.678Z,44.31
2023-04-26T05:02:31.655Z,44.32
2023-04-26T05:03:31.883Z,41.91
2023-04-26T05:04:32.035Z,44.72
2023-04-26T05:05:31.796Z,42.93
2023-04-26T05:06:31.814Z,45.55
2023-04-26T05:07:32.048Z,45.76
2023-04-26T05:08:32.003Z,41.54
2023-04-26T05:09:32.362Z,44.90
2023-04-26T05:10:32.141Z,42.58
2023-04-26T05:11:32.221Z,43.38
2023-04-26T05:12:32.267Z,45.58
2023-04-26T05:13:32.519Z,36.82
2023-04-26T05:14:32.265Z,38.69
2023-04-26T05:15:32.433Z,42.37
2023-04-26T05:17:51.892Z,25.00
2023-04-26T05:18:52.660Z,25.00
2023-04-26T05:19:52.572Z,25.00
2023-04-26T05:20:51.387Z,25.00
2023-04-26T05:21:51.346Z,25.00
2023-04-26T05:22:51.465Z,26.35
2023-04-26T05:23:52.656Z,26.04
2023-04-26T05:24:51.826Z,25.00
2023-04-26T05:25:52.271Z,27.29
2023-04-26T05:26:51.736Z,29.35
2023-04-26T05:27:51.647Z,26.43
2023-04-26T05:28:51.761Z,28.22
2023-04-26T05:29:51.261Z,26.71
2023-04-26T05:30:51.270Z,29.50
2023-04-26T05:31:51.285Z,28.88
2023-04-26T05:32:51.247Z,25.17
2023-04-26T05:33:53.016Z,30.36
2023-04-26T05:34:51.517Z,34.08
2023-04-26T05:35:51.515Z,28.04
2023-04-26T05:36:52.051Z,25.40
2023-04-26T05:37:51.726Z,25.00
2023-04-26T05:38:51.784Z,25.03
2023-04-26T05:39:52.131Z,25.46
2023-04-26T05:42:29.111Z,25.00
2023-04-26T05:43:31.313Z,25.00
2023-04-26T05:44:29.084Z,25.00
2023-04-26T05:46:48.928Z,25.00
2023-04-26T05:47:59.789Z,25.00
2023-04-26T05:48:48.136Z,25.00
2023-04-26T05:49:50.270Z,25.00
2023-04-26T05:50:48.723Z,25.00
2023-04-26T05:51:47.603Z,25.00
2023-04-26T05:52:50.754Z,25.00
2023-04-26T05:53:50.227Z,25.00
2023-04-26T05:54:50.370Z,25.00
2023-04-26T05:55:50.629Z,25.00
2023-04-26T05:56:54.154Z,25.00
2023-04-26T05:59:09.904Z,25.00
2023-04-26T06:00:11.416Z,25.00
2023-04-26T06:01:09.113Z,25.00
2023-04-26T06:02:09.611Z,25.00
2023-04-26T06:03:07.731Z,25.00
2023-04-26T06:04:10.618Z,25.00
2023-04-26T06:06:32.272Z,25.00
2023-04-26T06:07:26.019Z,25.00
2023-04-26T06:08:25.717Z,25.00
2023-04-26T06:09:25.904Z,25.00
2023-04-26T06:10:27.833Z,25.00
2023-04-26T06:11:29.247Z,25.00
2023-04-26T06:12:26.641Z,25.00
2023-04-26T06:13:25.879Z,25.00
2023-04-26T06:14:30.404Z,25.00
2023-04-26T06:15:27.633Z,25.00
2023-04-26T06:16:26.349Z,25.00
2023-04-26T06:17:26.549Z,25.00
2023-04-26T06:18:27.559Z,25.00
2023-04-26T06:19:28.316Z,25.00
2023-04-26T06:20:26.595Z,25.00
2023-04-26T06:21:25.641Z,25.00
2023-04-26T06:22:29.826Z,25.00
2023-04-26T06:23:26.497Z,25.00
2023-04-26T06:24:26.031Z,25.00
2023-04-26T06:25:26.339Z,25.00
2023-04-26T06:27:45.252Z,25.00
2023-04-26T06:28:46.055Z,25.00
2023-04-26T06:29:44.838Z,25.00
2023-04-26T06:30:46.240Z,25.00
2023-04-26T06:31:44.910Z,25.00
2023-04-26T06:32:44.786Z,25.00
2023-04-26T06:33:45.242Z,25.00
2023-04-26T06:34:48.395Z,25.00
2023-04-26T06:35:45.389Z,25.00
2023-04-26T06:36:54.832Z,25.00
2023-04-26T06:37:44.783Z,25.00
2023-04-26T06:38:44.785Z,25.00
2023-04-26T06:39:44.758Z,25.00
2023-04-26T06:40:46.442Z,25.00
2023-04-26T06:41:44.345Z,25.00
2023-04-26T06:42:45.249Z,25.70
2023-04-26T06:43:44.285Z,32.11
2023-04-26T06:44:44.279Z,32.62
2023-04-26T06:45:45.127Z,29.97
2023-04-26T06:46:44.315Z,29.19
2023-04-26T06:47:44.271Z,28.08
2023-04-26T06:48:44.340Z,28.63
2023-04-26T06:49:44.433Z,25.84
2023-04-26T06:50:44.392Z,27.13
2023-04-26T06:51:44.405Z,26.49
2023-04-26T06:52:44.503Z,25.86
2023-04-26T06:53:44.448Z,25.00
2023-04-26T06:54:55.861Z,26.80
2023-04-26T06:55:45.473Z,26.97
2023-04-26T06:56:44.472Z,27.01
2023-04-26T06:57:44.729Z,26.49
2023-04-26T06:58:44.447Z,23.18
2023-04-26T06:59:44.439Z,22.52
2023-04-26T07:00:44.470Z,27.61
2023-04-26T07:01:44.443Z,25.95
2023-04-26T07:02:44.537Z,27.80
2023-04-26T07:03:44.560Z,26.24
2023-04-26T07:04:44.603Z,29.11
2023-04-26T07:05:44.383Z,25.48
2023-04-26T07:06:44.376Z,26.31
2023-04-26T07:07:44.471Z,25.00
2023-04-26T07:08:44.419Z,26.95
2023-04-26T07:09:44.618Z,27.21
2023-04-26T07:10:44.532Z,27.86
2023-04-26T07:11:45.407Z,30.22
2023-04-26T07:12:44.620Z,28.23
2023-04-26T07:13:47.303Z,27.41
2023-04-26T07:14:45.442Z,30.02
2023-04-26T07:15:45.057Z,28.40
2023-04-26T07:16:45.667Z,26.17
2023-04-26T07:27:34.359Z,25.00
2023-04-26T07:28:32.811Z,25.00
2023-04-26T07:29:30.820Z,25.00
2023-04-26T07:31:53.525Z,25.00
2023-04-26T07:32:52.414Z,25.00
2023-04-26T07:33:52.116Z,25.00
2023-04-26T07:35:02.403Z,25.00
2023-04-26T07:37:31.259Z,25.00
2023-04-26T07:38:43.170Z,25.00
2023-04-26T07:41:19.707Z,25.00
2023-04-26T07:44:12.735Z,25.00
2023-04-26T07:45:13.844Z,25.00
2023-04-26T07:46:14.036Z,25.00
2023-04-26T07:47:13.090Z,25.00
2023-04-26T07:48:12.754Z,25.00
2023-04-26T07:50:40.022Z,25.00
2023-04-26T07:51:39.159Z,25.00
2023-04-26T08:00:53.035Z,25.00
2023-04-26T08:04:31.435Z,25.00
2023-04-26T08:05:33.622Z,25.00
2023-04-26T08:06:30.868Z,25.00
2023-04-26T08:07:32.008Z,25.00
2023-04-26T08:08:31.540Z,25.00
2023-04-26T08:09:31.116Z,25.00
2023-04-26T08:10:32.328Z,25.00
2023-04-26T08:11:30.460Z,25.00
2023-04-26T08:12:30.828Z,25.00
2023-04-26T08:13:30.304Z,25.00
2023-04-26T08:14:30.511Z,26.07
2023-04-26T08:15:30.650Z,25.70
2023-04-26T08:16:31.678Z,27.21
2023-04-26T08:17:30.536Z,27.78
2023-04-26T08:18:30.391Z,26.64
2023-04-26T08:19:31.046Z,25.85
2023-04-26T08:20:31.616Z,26.52
2023-04-26T08:22:50.775Z,25.00
2023-04-26T08:23:52.048Z,25.00
2023-04-26T08:28:37.991Z,25.00
2023-04-26T08:30:56.084Z,25.00
2023-04-26T08:31:56.281Z,25.00
2023-04-26T08:32:53.749Z,25.00
2023-04-26T08:33:53.384Z,25.00
2023-04-26T08:34:57.157Z,25.00
2023-04-26T08:37:38.442Z,25.00
2023-04-26T08:38:38.880Z,25.00
2023-04-26T08:39:44.807Z,25.00
2023-04-26T08:40:52.366Z,25.00
2023-04-26T08:41:39.594Z,25.00
2023-04-26T08:42:38.321Z,25.00
2023-04-26T08:43:38.221Z,25.00
2023-04-26T08:44:38.963Z,25.00
2023-04-26T08:47:16.777Z,25.00
2023-04-26T08:48:16.447Z,25.00
2023-04-26T08:53:12.368Z,25.00
2023-04-26T08:54:12.573Z,25.00
2023-04-26T09:26:55.043Z,25.00
2023-04-26T09:30:42.175Z,25.00
2023-04-26T09:31:39.588Z,25.00
2023-04-26T09:32:39.477Z,25.00
2023-04-26T09:33:39.395Z,25.00
2023-04-26T09:36:12.248Z,25.00
2023-04-26T09:38:30.958Z,25.00
2023-04-26T09:39:35.694Z,25.00
2023-04-26T09:47:21.666Z,25.00
2023-04-26T09:48:18.004Z,25.00
2023-04-26T09:49:18.063Z,25.00
2023-04-26T09:50:17.637Z,25.00
2023-04-26T09:51:20.208Z,25.00
2023-04-26T09:52:18.614Z,25.00
2023-04-26T09:53:17.781Z,25.00
2023-04-26T09:54:18.321Z,25.00
2023-04-26T09:55:31.113Z,25.00
2023-04-26T09:56:19.238Z,25.00
2023-04-26T09:58:37.050Z,25.00
2023-04-26T09:59:37.539Z,25.00
2023-04-26T10:00:36.686Z,25.00
2023-04-26T10:01:36.918Z,25.00
2023-04-26T10:02:37.122Z,25.00
2023-04-26T10:03:36.850Z,24.76
2023-04-26T10:04:36.504Z,28.22
2023-04-26T10:05:36.761Z,33.56
2023-04-26T10:06:36.585Z,30.52
2023-04-26T10:07:36.576Z,28.35
2023-04-26T10:08:36.446Z,33.58
2023-04-26T10:09:36.740Z,35.42
2023-04-26T10:10:36.267Z,33.15
2023-04-26T10:11:36.340Z,33.24
2023-04-26T10:12:36.379Z,35.97
2023-04-26T10:13:37.618Z,32.93
2023-04-26T10:14:36.398Z,31.09
2023-04-26T10:15:37.069Z,33.31
2023-04-26T10:16:36.810Z,30.75
2023-04-26T10:17:36.695Z,27.77
2023-04-26T10:18:39.368Z,27.73
2023-04-26T10:19:36.491Z,36.21
2023-04-26T10:20:37.616Z,37.65
2023-04-26T10:21:36.569Z,33.17
2023-04-26T10:23:56.573Z,25.00
2023-04-26T10:24:56.063Z,25.00
2023-04-26T10:25:55.879Z,25.00
2023-04-26T10:26:56.803Z,25.00
2023-04-26T10:29:46.197Z,25.00
2023-04-26T10:57:37.810Z,25.00
2023-04-26T10:58:36.278Z,25.00
2023-04-26T10:59:43.469Z,25.00
2023-04-26T11:00:32.987Z,25.00
2023-04-26T11:11:47.479Z,25.00
2023-04-26T11:12:47.273Z,25.00
2023-04-26T11:13:47.334Z,25.00
2023-04-26T11:14:45.379Z,25.00
2023-04-26T11:15:46.628Z,25.00
2023-04-26T11:31:17.131Z,25.00
2023-04-26T11:32:17.209Z,25.00
2023-04-26T11:35:39.865Z,25.00
2023-04-26T11:40:25.648Z,25.00
2023-04-26T11:41:21.668Z,25.00
2023-04-26T11:42:18.505Z,25.00
2023-04-26T11:48:23.306Z,25.00
2023-04-26T11:56:42.414Z,25.00
2023-04-26T11:59:01.310Z,25.00
2023-04-26T12:01:19.954Z,25.00
2023-04-26T12:04:03.877Z,25.00
2023-04-26T12:04:57.673Z,25.00
2023-04-26T12:05:56.719Z,25.00
2023-04-26T12:06:56.721Z,25.00
2023-04-26T12:07:56.861Z,25.00
2023-04-26T12:08:56.714Z,25.00
2023-04-26T12:09:58.064Z,23.60
2023-04-26T12:10:56.640Z,22.91
2023-04-26T12:11:56.761Z,26.80
2023-04-26T12:12:56.709Z,30.58
2023-04-26T12:13:56.691Z,34.44
2023-04-26T12:14:56.764Z,32.98
2023-04-26T12:15:56.870Z,38.31
2023-04-26T12:16:56.877Z,30.99
2023-04-26T12:17:56.922Z,38.77
2023-04-26T12:18:57.213Z,32.06
2023-04-26T12:19:56.998Z,34.84
2023-04-26T12:20:57.232Z,30.53
2023-04-26T12:21:58.124Z,28.06
2023-04-26T12:22:57.184Z,25.95
2023-04-26T12:23:57.386Z,26.95
2023-04-26T12:24:57.303Z,29.35
2023-04-26T12:25:57.369Z,29.45
2023-04-26T12:26:57.376Z,34.78
2023-04-26T12:27:57.412Z,33.98
2023-04-26T12:28:57.452Z,35.11
2023-04-26T12:29:57.510Z,38.69
2023-04-26T12:30:57.596Z,30.76
2023-04-26T12:31:57.753Z,38.68
2023-04-26T12:33:09.124Z,30.00
2023-04-26T12:33:57.719Z,30.33
2023-04-26T12:34:57.854Z,30.86
2023-04-26T12:35:58.824Z,33.52
2023-04-26T12:36:58.225Z,36.06
2023-04-26T12:37:57.917Z,36.20
2023-04-26T12:38:57.943Z,37.09
2023-04-26T12:39:58.118Z,34.26
2023-04-26T12:40:58.015Z,40.83
2023-04-26T12:41:58.079Z,39.08
2023-04-26T12:42:58.179Z,40.82
2023-04-26T12:43:58.235Z,40.49
2023-04-26T12:44:58.313Z,37.04
2023-04-26T12:45:58.368Z,39.79
2023-04-26T12:46:58.529Z,38.58
2023-04-26T12:47:58.543Z,40.05
2023-04-26T12:48:58.516Z,41.67
2023-04-26T12:49:58.598Z,45.24
2023-04-26T12:50:58.576Z,40.44
2023-04-26T12:51:58.597Z,36.68
2023-04-26T12:52:58.913Z,37.43
2023-04-26T12:53:58.721Z,40.30
2023-04-26T12:54:58.740Z,45.63
2023-04-26T12:55:58.824Z,35.89
2023-04-26T12:56:58.849Z,42.46
2023-04-26T12:57:59.730Z,44.20
2023-04-26T12:58:58.882Z,40.88
2023-04-26T12:59:59.915Z,35.70
2023-04-26T13:00:58.973Z,48.81
2023-04-26T13:01:59.102Z,37.51
2023-04-26T13:02:59.245Z,42.81
2023-04-26T13:03:59.148Z,43.70
2023-04-26T13:04:59.249Z,44.81
2023-04-26T13:05:59.163Z,40.08
2023-04-26T13:06:59.219Z,47.13
2023-04-26T13:08:59.281Z,40.80
2023-04-26T13:09:59.403Z,43.96
2023-04-26T13:10:59.426Z,41.94
2023-04-26T13:11:59.406Z,44.54
2023-04-26T13:12:59.479Z,41.23
2023-04-26T13:13:59.570Z,41.99
2023-04-26T13:14:59.613Z,43.00
2023-04-26T13:15:59.765Z,44.59
2023-04-26T13:16:59.707Z,42.32
2023-04-26T13:17:59.765Z,45.19
2023-04-26T13:18:59.810Z,45.15
2023-04-26T13:19:59.805Z,38.07
2023-04-26T13:20:59.892Z,41.29
2023-04-26T13:21:59.893Z,45.68
2023-04-26T13:22:59.923Z,50.58
2023-04-26T13:24:00.011Z,45.62
2023-04-26T13:25:00.103Z,45.25
2023-04-26T13:26:00.121Z,41.09
2023-04-26T13:27:00.160Z,40.85
2023-04-26T13:28:00.175Z,45.65
2023-04-26T13:29:00.315Z,46.47
2023-04-26T13:30:00.277Z,42.84
2023-04-26T13:31:00.365Z,41.45
2023-04-26T13:32:00.387Z,43.43
2023-04-26T13:33:00.699Z,42.75
2023-04-26T13:34:00.482Z,49.48
2023-04-26T13:35:00.505Z,43.55
2023-04-26T13:36:00.551Z,42.80
2023-04-26T13:37:00.614Z,46.19
2023-04-26T13:38:00.648Z,46.82
2023-04-26T13:39:00.735Z,38.33
2023-04-26T13:40:00.718Z,40.68
2023-04-26T13:41:00.811Z,42.89
2023-04-26T13:42:00.938Z,46.38
2023-04-26T13:43:00.865Z,44.26
2023-04-26T13:44:00.894Z,44.62
2023-04-26T13:45:01.010Z,50.06
2023-04-26T13:46:01.186Z,45.12
2023-04-26T13:47:01.272Z,45.68
2023-04-26T13:48:01.191Z,43.40
2023-04-26T13:49:01.151Z,41.83
2023-04-26T13:50:01.214Z,49.32
2023-04-26T13:51:01.232Z,46.09
2023-04-26T13:52:01.298Z,43.85
2023-04-26T13:53:01.376Z,47.97
2023-04-26T13:54:01.391Z,45.67
2023-04-26T13:55:01.409Z,41.32
2023-04-26T13:56:01.456Z,45.63
2023-04-26T13:57:01.526Z,47.53
2023-04-26T13:58:01.531Z,43.81
2023-04-26T13:59:01.595Z,39.86
2023-04-26T14:00:01.664Z,39.87
2023-04-26T14:01:01.773Z,43.01
2023-04-26T14:02:01.784Z,44.51
2023-04-26T14:03:02.043Z,39.47
2023-04-26T14:04:01.912Z,45.68
2023-04-26T14:05:01.962Z,42.61
2023-04-26T14:06:01.884Z,51.45
2023-04-26T14:07:02.058Z,50.76
2023-04-26T14:08:02.020Z,45.16
2023-04-26T14:09:02.015Z,49.69
2023-04-26T14:10:02.113Z,47.51
2023-04-26T14:11:02.121Z,47.19
2023-04-26T14:12:08.602Z,44.76
2023-04-26T14:13:03.157Z,44.97
2023-04-26T14:14:02.136Z,45.58
2023-04-26T14:15:02.101Z,42.92
2023-04-26T14:16:02.118Z,46.82
2023-04-26T14:17:02.234Z,50.48
2023-04-26T14:18:02.111Z,41.04
2023-04-26T14:19:02.108Z,45.62
2023-04-26T14:20:02.120Z,43.77
2023-04-26T14:21:02.072Z,44.11
2023-04-26T14:22:02.075Z,43.27
2023-04-26T14:23:02.142Z,39.92
2023-04-26T14:24:02.238Z,41.88
2023-04-26T14:25:02.226Z,44.76
2023-04-26T14:26:02.411Z,48.05
2023-04-26T14:27:02.340Z,41.90
2023-04-26T14:28:02.371Z,48.94
2023-04-26T14:29:02.414Z,42.84
2023-04-26T14:30:02.481Z,36.98
2023-04-26T14:31:02.526Z,49.80
2023-04-26T14:32:02.568Z,45.88
2023-04-26T14:33:02.640Z,48.75
2023-04-26T14:34:02.645Z,40.84
2023-04-26T14:35:02.672Z,41.93
2023-04-26T14:36:02.776Z,38.07
2023-04-26T14:37:02.798Z,38.90
2023-04-26T14:38:02.943Z,40.14
2023-04-26T14:39:02.868Z,41.96
2023-04-26T14:40:02.923Z,35.41
2023-04-26T14:41:02.944Z,43.92
2023-04-26T14:42:02.976Z,38.15
2023-04-26T14:43:03.046Z,40.28
2023-04-26T14:44:03.073Z,40.14
2023-04-26T14:45:03.145Z,38.18
2023-04-26T14:46:03.211Z,44.37
2023-04-26T14:47:03.221Z,41.38
2023-04-26T14:48:03.336Z,39.92
2023-04-26T14:49:03.307Z,45.53
2023-04-26T14:50:03.407Z,41.42
2023-04-26T14:51:03.403Z,38.68
2023-04-26T14:52:03.494Z,41.69
2023-04-26T14:53:03.480Z,45.81
2023-04-26T14:54:03.525Z,37.55
2023-04-26T14:55:03.569Z,41.85
2023-04-26T14:56:03.612Z,43.01
2023-04-26T14:57:03.682Z,40.86
2023-04-26T14:58:03.755Z,43.86
2023-04-26T14:59:03.826Z,36.24
2023-04-26T15:00:03.901Z,35.14
2023-04-26T15:01:04.025Z,46.30
2023-04-26T15:02:03.906Z,39.65
2023-04-26T15:03:04.163Z,36.88
2023-04-26T15:04:04.076Z,40.32
2023-04-26T15:05:04.124Z,44.44
2023-04-26T15:06:04.068Z,40.14
2023-04-26T15:07:04.151Z,39.70
2023-04-26T15:08:04.196Z,34.40
2023-04-26T15:09:04.223Z,37.60
2023-04-26T15:10:04.388Z,39.66
2023-04-26T15:11:04.335Z,39.55
2023-04-26T15:12:04.373Z,39.78
2023-04-26T15:13:04.447Z,44.09
2023-04-26T15:14:04.449Z,41.36
2023-04-26T15:15:04.510Z,35.90
2023-04-26T15:16:07.333Z,34.39
2023-04-26T15:17:04.674Z,40.83
2023-04-26T15:18:04.664Z,33.56
2023-04-26T15:19:04.520Z,39.23
2023-04-26T15:20:04.546Z,36.36
2023-04-26T15:21:04.519Z,39.27
2023-04-26T15:22:04.537Z,37.14
2023-04-26T15:23:04.487Z,35.94
2023-04-26T15:24:04.438Z,43.72
2023-04-26T15:25:04.522Z,32.65
2023-04-26T15:26:04.503Z,39.42
2023-04-26T15:27:04.480Z,35.60
2023-04-26T15:28:04.490Z,38.64
2023-04-26T15:29:04.437Z,39.22
2023-04-26T15:30:04.640Z,31.47
2023-04-26T15:31:04.431Z,35.69
2023-04-26T15:32:04.430Z,38.28
2023-04-26T15:33:04.477Z,34.67
2023-04-26T15:34:04.450Z,38.63
2023-04-26T15:35:04.374Z,35.03
2023-04-26T15:36:04.364Z,41.97
2023-04-26T15:37:04.365Z,34.40
2023-04-26T15:38:04.370Z,30.03
2023-04-26T15:39:04.406Z,30.49
2023-04-26T15:40:04.568Z,32.91
2023-04-26T15:41:04.480Z,37.11
2023-04-26T15:42:04.328Z,41.05
2023-04-26T15:43:04.346Z,33.38
2023-04-26T15:44:04.322Z,40.79
2023-04-26T15:45:04.343Z,36.07
2023-04-26T15:46:04.445Z,33.62
2023-04-26T15:47:04.320Z,32.88
2023-04-26T15:48:04.412Z,33.49
2023-04-26T15:49:04.289Z,30.11
2023-04-26T15:50:04.330Z,34.90
2023-04-26T15:51:04.365Z,34.13
2023-04-26T15:52:04.416Z,33.53
2023-04-26T15:53:04.464Z,34.15
2023-04-26T15:54:04.523Z,34.15
2023-04-26T15:55:04.592Z,43.63
2023-04-26T15:56:04.596Z,48.24
2023-04-26T15:57:04.675Z,59.67
2023-04-26T15:58:04.720Z,71.71
2023-04-26T15:59:04.750Z,78.39
2023-04-26T16:00:04.848Z,87.75
2023-04-26T16:01:05.784Z,85.81
2023-04-26T16:02:04.977Z,93.99
2023-04-26T16:03:05.234Z,97.12
2023-04-26T16:04:05.152Z,95.23
2023-04-26T16:05:05.291Z,89.12
2023-04-26T16:06:05.083Z,93.68
2023-04-26T16:07:05.162Z,95.60
2023-04-26T16:08:05.187Z,85.63
2023-04-26T16:09:13.768Z,93.00
2023-04-26T16:10:06.250Z,93.14
2023-04-26T16:11:05.377Z,93.09
2023-04-26T16:12:05.244Z,93.73
2023-04-26T16:13:05.244Z,91.80
2023-04-26T16:14:05.237Z,97.74
2023-04-26T16:15:05.287Z,95.15
2023-04-26T16:16:05.876Z,100.67
2023-04-26T16:17:05.311Z,106.04
2023-04-26T16:18:05.186Z,106.10
2023-04-26T16:19:05.224Z,110.19